Kezdőlap
METAR-TAF:

METAR-TAF

Repülőterek :

Taskent, Üzbegisztán

földrajzi szélesség: 41-16N, földrajzi hosszúság: 069-16E, magasság: 489 m

Jelenlegi meteorológiai megfigyelések

A jelentés 44 perccel ezelõtt készült, 09:00 UTC
Dél-délnyugati szél 6 kt, dél-délkeleti és nyugat-délnyugati között változik
Hőmérséklet 18°C
Páratartalom 37%
Légköri nyomás 1025 hPa
Látótávolság: 7000 m

METAR: UTTT 280900Z 21006KT 150V250 7000 NSC 18/03 Q1025 R26R/CLRD70 NOSIG

Idő: 14:44 (09:44 UTC)

Előrejelzés

A jelentés 4 órával és 44 perccel ezelõtt készült, 05:00 UTC
Az előrejelzés 28-én 06 óra UTC és 29-én 06 óra UTC között érvényes
Nyugati szél 8 kt
Látótávolság: 7000 m
28-én 08 óra UTC és 28-én 14 óra UTC között ideiglenes
Déli szél 15 kt
28-én 14 óra UTC és 28-én 20 óra UTC között ideiglenes
Látótávolság: 3000 m
Párásság, füst

TAF: UTTT 280500Z 2806/2906 26008KT 7000 NSC TEMPO 2808/2814 17015KT TEMPO 2814/2820 3000 BR FU

Meteorológiai megfigyelések és előrejelzések több, mint 4000 repülőtéren (METAR és TAF jelentéseket).

A térképen piros és sárga pontok jelzik az elérhető meteorológiai állomásokat.

Mozgassa az egeret a pont fölött, hogy megjelenjen az állomás neve.

Azután kattintson az időjárási megfigyelések és előrejelzések megtekintéséhez.

A térkép megváltoztatása: kattintson a fekete keresztel jelölt zöld gombra ráközelítéshez, a vonallal jelölt zöld gombra távolításhoz, vagy a zöld nyilakra a szomszédos térképek eléréséhez.


METAR-TAF: